createdAt,value
2022-09-24T00:01:56.719Z,7.94
2022-09-24T00:06:58.397Z,7.85
2022-09-24T00:12:01.057Z,7.87
2022-09-24T00:17:04.016Z,7.89
2022-09-24T00:22:06.088Z,7.92
2022-09-24T00:27:07.681Z,7.89
2022-09-24T00:32:10.646Z,7.90
2022-09-24T00:37:12.722Z,7.94
2022-09-24T00:42:14.728Z,7.90
2022-09-24T00:47:29.854Z,7.87
2022-09-24T00:52:32.158Z,7.84
2022-09-24T00:57:35.044Z,7.86
2022-09-24T01:02:42.371Z,7.90
2022-09-24T01:07:44.287Z,8.02
2022-09-24T01:12:57.129Z,8.04
2022-09-24T01:18:07.825Z,8.04
2022-09-24T01:23:34.366Z,8.08
2022-09-24T01:28:53.720Z,8.21
2022-09-24T01:34:01.060Z,8.28
2022-09-24T01:39:07.065Z,8.24
2022-09-24T01:44:10.552Z,8.28
2022-09-24T01:49:14.038Z,8.31
2022-09-24T01:54:21.908Z,8.40
2022-09-24T01:59:31.878Z,8.54
2022-09-24T02:04:40.812Z,8.73
2022-09-24T02:09:44.256Z,8.63
2022-09-24T02:14:52.041Z,8.62
2022-09-24T02:19:59.121Z,8.66
2022-09-24T02:25:05.121Z,8.64
2022-09-24T02:30:08.667Z,8.67
2022-09-24T02:35:12.777Z,8.63
2022-09-24T02:40:15.731Z,8.61
2022-09-24T02:45:17.951Z,8.59
2022-09-24T02:50:20.972Z,8.63
2022-09-24T02:55:23.059Z,8.68
2022-09-24T03:00:25.143Z,8.75
2022-09-24T03:05:28.317Z,8.74
2022-09-24T03:10:29.920Z,8.70
2022-09-24T03:15:31.720Z,8.71
2022-09-24T03:20:34.691Z,8.78
2022-09-24T03:25:36.727Z,8.69
2022-09-24T03:30:38.331Z,8.65
2022-09-24T03:35:41.866Z,8.67
2022-09-24T03:40:43.962Z,8.70
2022-09-24T03:45:46.063Z,8.68
2022-09-24T03:50:50.053Z,8.63
2022-09-24T03:55:55.265Z,8.54
2022-09-24T04:00:57.153Z,8.54
2022-09-24T04:06:00.201Z,8.51
2022-09-24T04:11:01.886Z,8.49
2022-09-24T04:16:04.531Z,8.58
2022-09-24T04:21:08.918Z,8.56
2022-09-24T04:26:10.896Z,8.59
2022-09-24T04:31:12.645Z,8.63
2022-09-24T04:36:16.073Z,8.57
2022-09-24T04:41:17.849Z,8.55
2022-09-24T04:46:19.531Z,8.50
2022-09-24T04:51:22.859Z,8.40
2022-09-24T04:56:24.615Z,8.33
2022-09-24T05:01:27.078Z,8.39
2022-09-24T05:06:30.311Z,8.42
2022-09-24T05:11:32.167Z,8.46
2022-09-24T05:16:34.457Z,8.59
2022-09-24T05:21:37.915Z,8.77
2022-09-24T05:26:39.859Z,8.80
2022-09-24T05:31:41.868Z,8.88
2022-09-24T05:36:45.332Z,8.89
2022-09-24T05:41:47.904Z,8.92
2022-09-24T05:46:51.152Z,8.93
2022-09-24T05:51:56.738Z,9.00
2022-09-24T05:56:58.739Z,9.15
2022-09-24T06:02:00.467Z,9.31
2022-09-24T06:07:03.473Z,9.67
2022-09-24T06:12:07.499Z,9.94
2022-09-24T06:17:09.664Z,10.28
2022-09-24T06:22:13.114Z,10.66
2022-09-24T06:27:15.154Z,11.03
2022-09-24T06:32:17.175Z,10.94
2022-09-24T06:37:20.198Z,10.91
2022-09-24T06:42:21.811Z,11.28
2022-09-24T06:47:23.579Z,11.44
2022-09-24T06:52:29.508Z,11.60
2022-09-24T06:57:31.568Z,11.70
2022-09-24T07:02:33.473Z,11.55
2022-09-24T07:07:36.670Z,11.66
2022-09-24T07:12:41.461Z,11.69
2022-09-24T07:17:43.336Z,11.97
2022-09-24T07:22:46.704Z,12.04
2022-09-24T07:27:48.804Z,11.96
2022-09-24T07:32:55.436Z,11.93
2022-09-24T07:38:00.076Z,12.08
2022-09-24T07:43:01.762Z,12.36
2022-09-24T07:48:05.450Z,12.90
2022-09-24T07:53:10.331Z,13.05
2022-09-24T07:58:15.321Z,13.20
2022-09-24T08:03:16.992Z,13.29
2022-09-24T08:08:19.981Z,13.12
2022-09-24T08:13:26.863Z,13.96
2022-09-24T08:18:31.759Z,13.85
2022-09-24T08:23:36.169Z,14.04
2022-09-24T08:28:39.136Z,14.06
2022-09-24T08:33:41.316Z,14.45
2022-09-24T08:38:44.393Z,15.06
2022-09-24T08:43:54.970Z,15.15
2022-09-24T08:48:57.975Z,14.48
2022-09-24T08:54:06.419Z,14.54
2022-09-24T08:59:23.117Z,14.58
2022-09-24T09:04:29.103Z,14.76
2022-09-24T09:09:43.251Z,14.71
2022-09-24T09:14:54.417Z,14.67
2022-09-24T09:19:58.432Z,14.88
2022-09-24T09:25:13.101Z,15.44
2022-09-24T09:30:18.305Z,15.60
2022-09-24T09:35:26.152Z,15.75
2022-09-24T09:40:35.736Z,15.58
2022-09-24T09:45:44.643Z,15.48
2022-09-24T09:50:48.646Z,15.59
2022-09-24T09:55:56.975Z,14.77
2022-09-24T10:01:07.203Z,14.97
2022-09-24T10:06:10.934Z,15.29
2022-09-24T10:11:16.593Z,16.16
2022-09-24T10:16:18.894Z,16.96
2022-09-24T10:21:31.188Z,16.80
2022-09-24T10:26:40.931Z,17.20
2022-09-24T10:31:50.986Z,17.35
2022-09-24T10:37:19.801Z,17.36
2022-09-24T10:42:28.529Z,17.31
2022-09-24T10:48:08.726Z,17.47
2022-09-24T10:53:20.254Z,18.78
2022-09-24T10:58:57.352Z,17.51
2022-09-24T11:04:27.583Z,17.44
2022-09-24T11:09:53.207Z,18.43
2022-09-24T11:15:31.653Z,18.65
2022-09-24T11:20:40.795Z,18.83
2022-09-24T11:25:59.867Z,18.53
2022-09-24T11:31:32.401Z,18.90
2022-09-24T11:36:57.140Z,19.10
2022-09-24T11:42:30.650Z,19.41
2022-09-24T11:48:21.113Z,18.72
2022-09-24T11:53:40.879Z,19.29
2022-09-24T11:59:09.371Z,18.89
2022-09-24T12:04:29.836Z,18.08
2022-09-24T12:09:37.041Z,18.72
2022-09-24T12:14:48.226Z,19.10
2022-09-24T12:19:56.507Z,18.83
2022-09-24T12:25:00.387Z,19.00
2022-09-24T12:30:15.585Z,19.20
2022-09-24T12:35:32.377Z,19.07
2022-09-24T12:41:10.186Z,19.25
2022-09-24T12:46:20.227Z,19.65
2022-09-24T12:51:24.477Z,20.21
2022-09-24T12:56:29.454Z,19.66
2022-09-24T13:01:33.001Z,20.20
2022-09-24T13:06:38.036Z,20.41
2022-09-24T13:11:40.402Z,20.14
2022-09-24T13:16:45.854Z,19.56
2022-09-24T13:21:56.768Z,18.71
2022-09-24T13:27:21.088Z,19.03
2022-09-24T13:32:23.160Z,19.43
2022-09-24T13:37:34.586Z,19.01
2022-09-24T13:42:45.723Z,19.17
2022-09-24T13:47:51.656Z,19.15
2022-09-24T13:52:58.314Z,19.36
2022-09-24T13:58:00.626Z,19.55
2022-09-24T14:03:14.429Z,19.46
2022-09-24T14:08:21.315Z,18.55
2022-09-24T14:13:25.553Z,18.67
2022-09-24T14:18:28.754Z,18.56
2022-09-24T14:23:38.169Z,18.53
2022-09-24T14:28:40.121Z,18.16
2022-09-24T14:33:42.176Z,18.07
2022-09-24T14:38:54.029Z,17.91
2022-09-24T14:44:01.132Z,17.94
2022-09-24T14:49:07.155Z,17.82
2022-09-24T14:54:23.784Z,17.89
2022-09-24T14:59:30.116Z,17.93
2022-09-24T15:04:31.954Z,17.78
2022-09-24T15:09:35.215Z,17.84
2022-09-24T15:14:37.241Z,17.88
2022-09-24T15:19:39.224Z,17.75
2022-09-24T15:24:42.225Z,17.60
2022-09-24T15:29:43.930Z,17.54
2022-09-24T15:34:46.377Z,17.29
2022-09-24T15:39:50.246Z,17.22
2022-09-24T15:44:52.614Z,17.30
2022-09-24T15:49:54.597Z,17.10
2022-09-24T15:55:00.427Z,17.06
2022-09-24T16:00:02.648Z,16.97
2022-09-24T16:05:11.055Z,16.79
2022-09-24T16:10:15.290Z,16.60
2022-09-24T16:15:17.090Z,16.49
2022-09-24T16:20:19.183Z,16.36
2022-09-24T16:25:23.147Z,16.14
2022-09-24T16:30:25.296Z,15.87
2022-09-24T16:35:27.165Z,15.75
2022-09-24T16:40:30.312Z,15.76
2022-09-24T16:45:32.760Z,15.67
2022-09-24T16:50:34.438Z,15.35
2022-09-24T16:55:37.528Z,15.08
2022-09-24T17:00:41.335Z,15.11
2022-09-24T17:05:42.937Z,14.89
2022-09-24T17:10:51.659Z,14.97
2022-09-24T17:15:54.676Z,14.68
2022-09-24T17:21:00.434Z,14.52
2022-09-24T17:26:05.966Z,14.62
2022-09-24T17:31:10.667Z,14.85
2022-09-24T17:36:12.825Z,14.67
2022-09-24T17:41:16.321Z,14.52
2022-09-24T17:46:19.875Z,14.55
2022-09-24T17:51:23.154Z,14.53
2022-09-24T17:56:27.967Z,14.52
2022-09-24T18:01:31.719Z,14.59
2022-09-24T18:06:36.659Z,14.55
2022-09-24T18:11:42.941Z,14.45
2022-09-24T18:16:45.744Z,14.44
2022-09-24T18:21:48.483Z,14.51
2022-09-24T18:26:52.025Z,14.33
2022-09-24T18:31:53.665Z,14.37
2022-09-24T18:36:55.600Z,14.44
2022-09-24T18:41:58.698Z,14.34
2022-09-24T18:47:00.437Z,14.27
2022-09-24T18:52:02.281Z,14.22
2022-09-24T18:57:05.813Z,14.19
2022-09-24T19:02:07.911Z,14.12
2022-09-24T19:07:09.738Z,14.15
2022-09-24T19:12:12.773Z,14.09
2022-09-24T19:17:14.808Z,14.28
2022-09-24T19:22:16.472Z,14.21
2022-09-24T19:27:19.657Z,14.12
2022-09-24T19:32:21.639Z,13.89
2022-09-24T19:37:23.628Z,13.82
2022-09-24T19:42:26.962Z,13.79
2022-09-24T19:47:28.651Z,13.80
2022-09-24T19:52:30.536Z,13.58
2022-09-24T19:57:34.048Z,13.72
2022-09-24T20:02:36.539Z,13.57
2022-09-24T20:07:38.691Z,13.53
2022-09-24T20:12:41.903Z,13.31
2022-09-24T20:17:44.692Z,13.25
2022-09-24T20:22:46.396Z,13.23
2022-09-24T20:27:49.574Z,13.28
2022-09-24T20:32:51.561Z,13.22
2022-09-24T20:37:53.413Z,13.06
2022-09-24T20:42:56.543Z,12.95
2022-09-24T20:47:58.278Z,12.96
2022-09-24T20:53:00.008Z,12.89
2022-09-24T20:58:03.033Z,12.91
2022-09-24T21:03:20.228Z,13.01
2022-09-24T21:08:26.384Z,13.13
2022-09-24T21:13:29.402Z,13.14
2022-09-24T21:18:39.610Z,13.17
2022-09-24T21:23:43.348Z,13.12
2022-09-24T21:28:48.818Z,12.91
2022-09-24T21:33:52.107Z,12.82
2022-09-24T21:38:54.804Z,12.78
2022-09-24T21:43:58.303Z,12.77
2022-09-24T21:49:01.246Z,12.88
2022-09-24T21:54:05.287Z,12.97
2022-09-24T21:59:08.662Z,12.80
2022-09-24T22:04:10.372Z,12.69
2022-09-24T22:09:12.014Z,12.60
2022-09-24T22:14:15.156Z,12.55
2022-09-24T22:19:16.909Z,12.52
2022-09-24T22:24:19.094Z,12.53
2022-09-24T22:29:22.606Z,12.53
2022-09-24T22:34:24.886Z,12.48
2022-09-24T22:39:26.803Z,12.41
2022-09-24T22:44:29.822Z,12.34
2022-09-24T22:49:31.509Z,12.34
2022-09-24T22:54:33.171Z,12.33
2022-09-24T22:59:36.154Z,12.29
2022-09-24T23:04:38.324Z,12.28
2022-09-24T23:09:40.020Z,12.23
2022-09-24T23:14:43.592Z,12.18
2022-09-24T23:19:45.285Z,12.18
2022-09-24T23:24:47.452Z,12.14
2022-09-24T23:29:51.317Z,12.15
2022-09-24T23:34:53.261Z,12.09
2022-09-24T23:39:55.528Z,12.10
2022-09-24T23:44:58.483Z,12.06
2022-09-24T23:50:00.076Z,12.13
2022-09-24T23:55:01.736Z,12.23
